Time;durP1;ratioP1;P1;durP2;ratioP2;P2;SDS_P1;SDS_P2;PMS_P1;PMS_P2;Temp;Humidity;BMP_temperature;BMP_pressure;BME280_temperature;BME280_humidity;BME280_pressure;Samples;Min_cycle;Max_cycle;Signal;HPM_P1;HPM_P2
2022/12/31 00:01:13;;;;;;;290.08;168.50;;;4.80;1.00;;;;;;4942048;29;20416;-76
2022/12/31 00:03:42;;;;;;;282.40;164.23;;;4.90;1.00;;;;;;4941588;29;20035;-76
2022/12/31 00:06:21;;;;;;;275.30;158.70;;;4.80;1.00;;;;;;4938238;29;20064;-77
2022/12/31 00:08:49;;;;;;;267.30;153.68;;;4.80;1.00;;;;;;4943684;28;20040;-75
2022/12/31 00:11:17;;;;;;;254.48;147.93;;;4.80;1.00;;;;;;4957163;29;20059;-76
2022/12/31 00:13:46;;;;;;;219.68;132.43;;;4.70;1.00;;;;;;4944984;29;20042;-75
2022/12/31 00:16:17;;;;;;;225.45;134.50;;;4.70;1.00;;;;;;4946251;29;20048;-76
2022/12/31 00:18:45;;;;;;;218.48;129.02;;;4.70;1.00;;;;;;4949855;28;20054;-77
2022/12/31 00:21:13;;;;;;;230.02;133.25;;;4.70;1.00;;;;;;4941590;29;20047;-78
2022/12/31 00:23:42;;;;;;;242.57;142.40;;;4.70;99.90;;;;;;4942800;29;20048;-77
2022/12/31 00:26:12;;;;;;;261.77;152.30;;;4.70;99.90;;;;;;4941651;29;20698;-75
2022/12/31 00:28:41;;;;;;;254.38;151.68;;;4.60;99.30;;;;;;4956695;28;20027;-77
2022/12/31 00:31:10;;;;;;;262.17;155.13;;;4.60;1.00;;;;;;4965511;28;20036;-77
2022/12/31 00:33:38;;;;;;;259.25;153.18;;;4.50;87.20;;;;;;4943829;29;20047;-76
2022/12/31 00:36:07;;;;;;;250.35;145.02;;;4.50;99.90;;;;;;4941366;29;20047;-77
2022/12/31 00:38:35;;;;;;;239.52;136.68;;;4.60;99.90;;;;;;4950547;28;20047;-78
2022/12/31 00:41:04;;;;;;;249.75;140.77;;;4.70;99.90;;;;;;4961119;29;20067;-75
2022/12/31 00:43:32;;;;;;;258.33;150.10;;;4.70;64.10;;;;;;4951075;29;20047;-77
2022/12/31 00:45:59;;;;;;;250.98;142.68;;;4.70;24.70;;;;;;4947957;29;20415;-79
2022/12/31 00:48:27;;;;;;;239.90;140.40;;;4.70;94.50;;;;;;4944165;28;20148;-77
2022/12/31 00:50:55;;;;;;;239.38;144.68;;;4.80;47.70;;;;;;4946701;29;20099;-73
2022/12/31 00:53:24;;;;;;;226.75;138.32;;;4.80;58.30;;;;;;4942334;29;20515;-76
2022/12/31 00:55:51;;;;;;;229.88;139.05;;;4.80;1.00;;;;;;4945082;29;20507;-79
2022/12/31 00:58:20;;;;;;;221.55;132.75;;;4.80;1.00;;;;;;4926824;29;20040;-73
2022/12/31 01:00:47;;;;;;;207.70;120.60;;;4.70;1.00;;;;;;4964228;29;20067;-77
2022/12/31 01:03:15;;;;;;;216.65;128.52;;;4.60;1.00;;;;;;4948429;29;20059;-76
2022/12/31 01:05:42;;;;;;;186.93;110.78;;;4.70;1.00;;;;;;4926029;29;20491;-77
2022/12/31 01:08:10;;;;;;;219.63;123.43;;;4.60;1.00;;;;;;4950350;28;20456;-77
2022/12/31 01:13:24;;;;;;;161.05;100.35;;;4.60;1.00;;;;;;4945556;29;20043;-76
2022/12/31 01:15:52;;;;;;;184.80;106.90;;;4.60;99.90;;;;;;4942058;29;20043;-76
2022/12/31 01:18:20;;;;;;;182.80;108.10;;;4.60;99.90;;;;;;4941500;29;20039;-76
2022/12/31 01:20:47;;;;;;;189.93;113.85;;;4.60;99.90;;;;;;4924810;29;20052;-77
2022/12/31 01:23:14;;;;;;;225.75;126.95;;;4.50;99.90;;;;;;4943345;29;20124;-77
2022/12/31 01:25:42;;;;;;;213.07;122.35;;;4.50;99.90;;;;;;4944855;29;20043;-76
2022/12/31 01:28:10;;;;;;;206.23;123.40;;;4.40;1.00;;;;;;4943513;28;20411;-76
2022/12/31 01:30:40;;;;;;;188.60;113.47;;;4.30;99.90;;;;;;4943385;29;20038;-74
2022/12/31 01:33:07;;;;;;;189.55;113.75;;;4.30;99.90;;;;;;4943288;29;20047;-78
2022/12/31 01:35:35;;;;;;;199.25;116.10;;;4.30;99.90;;;;;;4943001;29;20043;-77
2022/12/31 01:38:03;;;;;;;206.18;119.80;;;4.40;99.90;;;;;;4943879;28;20040;-77
2022/12/31 01:40:30;;;;;;;207.77;124.45;;;4.30;99.90;;;;;;4943553;29;20044;-78
2022/12/31 01:42:58;;;;;;;212.45;126.72;;;4.20;1.00;;;;;;4943718;29;20055;-76
2022/12/31 01:45:26;;;;;;;190.55;114.25;;;4.20;99.90;;;;;;4943719;29;20044;-77
2022/12/31 01:47:58;;;;;;;170.60;101.68;;;4.20;99.90;;;;;;4943773;28;20131;-77
2022/12/31 01:50:29;;;;;;;183.30;107.93;;;4.20;99.90;;;;;;4942867;28;20043;-76
2022/12/31 01:53:00;;;;;;;182.07;106.82;;;4.20;99.90;;;;;;4941749;29;20114;-75
2022/12/31 01:55:32;;;;;;;190.57;109.68;;;4.30;99.90;;;;;;4944874;29;20058;-74
2022/12/31 01:58:09;;;;;;;161.98;97.32;;;4.30;99.90;;;;;;4963876;29;20026;-78
2022/12/31 02:00:37;;;;;;;156.95;92.43;;;4.30;99.90;;;;;;4947191;28;20143;-76
2022/12/31 02:03:08;;;;;;;155.27;92.97;;;4.30;99.90;;;;;;4940983;29;20050;-75
2022/12/31 02:05:41;;;;;;;157.50;97.03;;;4.30;99.90;;;;;;4943892;29;20043;-75
2022/12/31 02:08:11;;;;;;;162.73;97.85;;;4.30;99.90;;;;;;4941851;28;20057;-77
2022/12/31 02:10:39;;;;;;;172.65;100.88;;;4.30;99.90;;;;;;4944542;29;20047;-78
2022/12/31 02:13:07;;;;;;;174.43;102.30;;;4.30;97.10;;;;;;4944049;29;20042;-78
2022/12/31 02:15:45;;;;;;;171.23;101.10;;;4.20;1.00;;;;;;4947949;29;20036;-76
2022/12/31 02:18:23;;;;;;;154.73;92.13;;;4.20;99.90;;;;;;4963689;28;20115;-76
2022/12/31 02:21:16;;;;;;;140.32;85.60;;;4.20;99.90;;;;;;4948531;29;20062;-76
2022/12/31 02:24:16;;;;;;;147.95;88.18;;;4.20;99.90;;;;;;4942501;29;20415;-77
2022/12/31 02:26:53;;;;;;;152.40;92.32;;;4.30;99.90;;;;;;4942625;28;20055;-77
2022/12/31 02:29:57;;;;;;;150.27;96.15;;;4.30;99.90;;;;;;4947272;29;20254;-77
2022/12/31 02:32:34;;;;;;;151.10;95.15;;;4.30;99.90;;;;;;4953858;29;20046;-76
2022/12/31 02:35:08;;;;;;;134.40;88.43;;;4.30;99.90;;;;;;4930999;29;20123;-79
2022/12/31 02:37:38;;;;;;;120.88;78.53;;;4.30;99.90;;;;;;4953106;28;20044;-77
2022/12/31 02:40:10;;;;;;;119.20;74.88;;;4.30;99.90;;;;;;4949491;29;20043;-77
2022/12/31 02:42:37;;;;;;;125.18;74.47;;;4.30;99.90;;;;;;4944865;29;20071;-77
2022/12/31 02:45:05;;;;;;;121.95;71.25;;;4.40;99.90;;;;;;4947524;29;20114;-76
2022/12/31 02:47:47;;;;;;;138.10;81.53;;;4.40;99.90;;;;;;4940297;29;20047;-77
2022/12/31 02:50:32;;;;;;;115.45;64.18;;;4.50;28.80;;;;;;4943051;29;20052;-78
2022/12/31 02:53:14;;;;;;;117.88;69.38;;;4.50;1.00;;;;;;4943754;29;20070;-76
2022/12/31 02:55:48;;;;;;;107.63;65.93;;;4.60;99.90;;;;;;4948822;29;20059;-76
2022/12/31 03:02:12;;;;;;;134.25;78.10;;;4.70;99.90;;;;;;4966352;28;20047;-77
2022/12/31 03:06:47;;;;;;;126.55;72.60;;;4.80;1.00;;;;;;4942551;29;20042;-79
2022/12/31 03:09:15;;;;;;;121.47;68.55;;;4.80;1.00;;;;;;4942621;29;20385;-77
2022/12/31 03:14:27;;;;;;;120.15;68.88;;;4.70;1.00;;;;;;4947365;29;20089;-74
2022/12/31 03:16:54;;;;;;;110.05;63.08;;;4.80;1.00;;;;;;4955850;29;20107;-76
2022/12/31 03:22:29;;;;;;;106.47;63.78;;;4.90;1.00;;;;;;4954127;29;20055;-75
2022/12/31 03:27:45;;;;;;;95.65;58.55;;;4.90;1.00;;;;;;4940017;29;20468;-76
2022/12/31 03:30:14;;;;;;;108.53;63.03;;;4.90;1.00;;;;;;4943308;29;20411;-77
2022/12/31 03:32:43;;;;;;;93.57;55.30;;;5.00;1.00;;;;;;4925859;29;20055;-76
2022/12/31 03:35:13;;;;;;;104.47;61.17;;;5.10;1.00;;;;;;4943565;29;20104;-73
2022/12/31 03:37:45;;;;;;;94.70;56.08;;;5.20;99.90;;;;;;4942012;29;20471;-75
2022/12/31 03:40:14;;;;;;;98.05;58.25;;;5.20;1.00;;;;;;4947072;29;20056;-74
2022/12/31 03:42:41;;;;;;;87.18;51.17;;;5.20;1.00;;;;;;4964838;29;20019;-76
2022/12/31 03:45:10;;;;;;;76.38;46.42;;;5.20;99.90;;;;;;4951156;29;20051;-77
2022/12/31 03:47:38;;;;;;;86.72;51.88;;;5.30;99.90;;;;;;4943185;29;20047;-75
2022/12/31 03:50:07;;;;;;;89.90;52.33;;;5.20;1.00;;;;;;4944942;29;20035;-76
2022/12/31 03:52:35;;;;;;;91.28;53.15;;;5.30;99.90;;;;;;4924243;29;20050;-78
2022/12/31 03:55:04;;;;;;;94.80;56.22;;;5.30;1.00;;;;;;4953630;29;20061;-77
2022/12/31 03:57:31;;;;;;;96.97;57.20;;;5.40;1.00;;;;;;4959569;28;20040;-76
2022/12/31 03:59:59;;;;;;;95.97;57.53;;;5.50;1.00;;;;;;4948142;29;20051;-77
2022/12/31 04:02:26;;;;;;;92.80;54.53;;;5.50;1.00;;;;;;4955834;29;20049;-75
2022/12/31 04:04:55;;;;;;;82.43;49.83;;;5.60;99.90;;;;;;4950393;29;20131;-77
2022/12/31 04:07:22;;;;;;;74.55;46.00;;;5.60;1.00;;;;;;4925100;29;20048;-75
2022/12/31 04:09:52;;;;;;;76.97;47.10;;;5.60;99.90;;;;;;4949224;29;20043;-74
2022/12/31 04:12:19;;;;;;;80.82;49.13;;;5.60;99.90;;;;;;4954935;29;20055;-73
2022/12/31 04:14:47;;;;;;;67.03;39.88;;;5.60;1.00;;;;;;4933869;29;20047;-77
2022/12/31 04:17:14;;;;;;;66.60;41.85;;;5.70;1.00;;;;;;4950735;28;20112;-75
2022/12/31 04:19:42;;;;;;;74.90;48.38;;;5.70;1.00;;;;;;4965205;29;20064;-77
2022/12/31 04:22:09;;;;;;;87.88;51.15;;;5.70;1.00;;;;;;4966071;29;20096;-75
2022/12/31 04:24:36;;;;;;;85.70;51.38;;;5.80;1.00;;;;;;4966288;29;20039;-76
2022/12/31 04:27:05;;;;;;;86.45;49.70;;;5.90;1.00;;;;;;4958607;29;20107;-76
2022/12/31 04:29:33;;;;;;;81.00;47.85;;;5.90;99.90;;;;;;4934702;29;20043;-75
2022/12/31 04:32:00;;;;;;;85.25;47.25;;;6.00;1.00;;;;;;4948216;29;20047;-76
2022/12/31 04:34:28;;;;;;;68.05;43.15;;;5.90;1.00;;;;;;4944018;29;20046;-75
2022/12/31 04:36:55;;;;;;;72.55;45.17;;;6.00;99.90;;;;;;4944022;29;20113;-77
2022/12/31 04:39:23;;;;;;;64.60;42.65;;;6.00;8.50;;;;;;4944314;29;20403;-77
2022/12/31 04:41:51;;;;;;;73.53;45.65;;;6.10;99.90;;;;;;4945251;29;20044;-78
2022/12/31 04:44:20;;;;;;;75.47;47.47;;;6.10;1.00;;;;;;4945747;29;20511;-76
2022/12/31 04:46:47;;;;;;;71.70;44.58;;;6.20;99.90;;;;;;4947733;29;20043;-76
2022/12/31 04:49:15;;;;;;;75.40;43.95;;;6.20;91.90;;;;;;4932263;29;20376;-75
2022/12/31 04:51:43;;;;;;;66.72;42.47;;;6.20;99.90;;;;;;4948379;29;20075;-76
2022/12/31 04:54:11;;;;;;;65.35;42.17;;;6.20;99.90;;;;;;4945081;29;20039;-74
2022/12/31 04:56:38;;;;;;;62.15;40.38;;;6.20;1.00;;;;;;4960494;28;20039;-75
2022/12/31 04:59:07;;;;;;;66.22;42.30;;;6.30;1.00;;;;;;4961252;29;20043;-78
2022/12/31 05:01:37;;;;;;;64.40;41.67;;;6.30;99.90;;;;;;4960620;29;20111;-74
2022/12/31 05:04:05;;;;;;;70.50;43.08;;;6.30;1.00;;;;;;4961136;29;20054;-74
2022/12/31 05:06:32;;;;;;;73.55;47.88;;;6.30;99.90;;;;;;4965086;28;20119;-76
2022/12/31 05:09:01;;;;;;;80.72;49.35;;;6.30;99.90;;;;;;4957279;29;20129;-76
2022/12/31 05:11:29;;;;;;;71.25;46.20;;;6.30;99.90;;;;;;4966473;29;20032;-75
2022/12/31 05:13:56;;;;;;;70.88;44.85;;;6.30;19.60;;;;;;4951853;29;20044;-76
2022/12/31 05:16:24;;;;;;;68.85;43.20;;;6.40;99.90;;;;;;4946616;28;20047;-75
2022/12/31 05:18:53;;;;;;;70.53;43.53;;;6.40;66.10;;;;;;4944978;29;20066;-78
2022/12/31 05:21:21;;;;;;;70.50;46.05;;;6.40;1.00;;;;;;4945075;29;20043;-76
2022/12/31 05:23:49;;;;;;;71.95;46.45;;;6.50;1.00;;;;;;4946743;28;20051;-74
2022/12/31 05:26:17;;;;;;;80.38;49.55;;;6.50;1.00;;;;;;4949014;29;20066;-75
2022/12/31 05:28:44;;;;;;;77.75;50.10;;;6.50;99.90;;;;;;4950657;29;20711;-77
2022/12/31 05:31:16;;;;;;;78.85;49.60;;;6.50;1.00;;;;;;4935681;29;20067;-76
2022/12/31 05:33:43;;;;;;;95.00;57.63;;;6.50;23.60;;;;;;4959094;29;20039;-76
2022/12/31 05:36:13;;;;;;;86.25;54.40;;;6.50;99.90;;;;;;4955318;28;20043;-77
2022/12/31 05:38:40;;;;;;;91.25;54.40;;;6.40;1.00;;;;;;4960678;29;20048;-77
2022/12/31 05:41:11;;;;;;;88.30;53.45;;;6.40;1.00;;;;;;4961673;29;20043;-76
2022/12/31 05:43:38;;;;;;;73.25;46.15;;;6.40;1.00;;;;;;4960428;29;20111;-75
2022/12/31 05:46:06;;;;;;;70.57;44.88;;;6.40;1.00;;;;;;4951047;29;20047;-75
2022/12/31 05:48:33;;;;;;;69.18;44.38;;;6.50;1.00;;;;;;4944431;29;20129;-75
2022/12/31 05:51:01;;;;;;;65.65;43.38;;;6.50;1.00;;;;;;4962197;29;20059;-74
2022/12/31 05:53:30;;;;;;;93.00;56.58;;;6.50;1.00;;;;;;4967938;29;20096;-76
2022/12/31 05:55:57;;;;;;;112.65;64.32;;;6.60;99.90;;;;;;4959502;28;20071;-76
2022/12/31 05:58:24;;;;;;;106.53;64.28;;;6.50;99.90;;;;;;4958177;29;20079;-76
2022/12/31 06:00:52;;;;;;;99.95;58.10;;;6.40;1.00;;;;;;4965155;29;20035;-75
2022/12/31 06:03:19;;;;;;;83.45;50.45;;;6.30;1.00;;;;;;4963455;29;20071;-75
2022/12/31 06:05:47;;;;;;;88.85;54.22;;;6.20;99.90;;;;;;4965562;29;20054;-76
2022/12/31 06:08:14;;;;;;;89.57;53.28;;;6.20;1.00;;;;;;4961720;29;20041;-75
2022/12/31 06:10:43;;;;;;;94.78;56.80;;;6.10;99.90;;;;;;4962226;29;20111;-76
2022/12/31 06:13:10;;;;;;;94.70;57.38;;;6.10;99.90;;;;;;4962896;29;20037;-75
2022/12/31 06:15:39;;;;;;;87.53;55.83;;;6.10;99.90;;;;;;4954773;29;20047;-74
2022/12/31 06:18:06;;;;;;;94.15;59.30;;;6.00;99.90;;;;;;4956774;29;20035;-77
2022/12/31 06:20:36;;;;;;;143.88;85.35;;;6.00;99.90;;;;;;4952701;29;20115;-75
2022/12/31 06:23:03;;;;;;;169.88;102.57;;;5.90;99.90;;;;;;4944313;29;20051;-77
2022/12/31 06:25:30;;;;;;;142.80;90.78;;;5.90;99.90;;;;;;4944069;29;20074;-77
2022/12/31 06:27:59;;;;;;;105.65;68.25;;;5.90;99.90;;;;;;4944948;28;20126;-76
2022/12/31 06:30:27;;;;;;;111.63;72.97;;;5.90;99.90;;;;;;4934883;29;20044;-77
2022/12/31 06:32:55;;;;;;;117.00;73.43;;;5.90;99.90;;;;;;4953931;29;20044;-77
2022/12/31 06:35:23;;;;;;;129.90;84.30;;;5.90;99.90;;;;;;4941404;29;20450;-77
2022/12/31 06:37:52;;;;;;;135.82;85.47;;;5.90;99.90;;;;;;4940511;28;20060;-78
2022/12/31 06:40:20;;;;;;;113.07;74.22;;;5.90;99.90;;;;;;4942659;29;20078;-75
2022/12/31 06:42:47;;;;;;;105.70;66.63;;;5.80;99.90;;;;;;4943098;29;20043;-76
2022/12/31 06:45:16;;;;;;;105.40;69.43;;;5.80;99.90;;;;;;4945234;29;20047;-76
2022/12/31 06:47:44;;;;;;;119.03;75.85;;;5.90;99.90;;;;;;4944752;29;20095;-78
2022/12/31 06:50:11;;;;;;;111.95;70.07;;;5.90;99.90;;;;;;4943737;29;20044;-76
2022/12/31 06:52:39;;;;;;;105.40;67.22;;;5.90;99.90;;;;;;4950131;29;20463;-75
2022/12/31 06:55:08;;;;;;;110.50;71.60;;;5.90;99.90;;;;;;4966508;29;20112;-77
2022/12/31 06:57:36;;;;;;;123.75;77.55;;;5.80;99.90;;;;;;4950478;29;20043;-77
2022/12/31 07:00:05;;;;;;;124.50;79.25;;;5.80;99.90;;;;;;4955129;29;20055;-76
2022/12/31 07:02:54;;;;;;;120.88;76.80;;;5.80;99.90;;;;;;4960361;29;20039;-75
2022/12/31 07:05:35;;;;;;;145.13;92.28;;;5.80;99.90;;;;;;4929741;29;20407;-77
2022/12/31 07:08:14;;;;;;;128.23;80.00;;;5.80;99.90;;;;;;4942822;29;20044;-76
2022/12/31 07:10:51;;;;;;;125.22;78.32;;;5.90;99.90;;;;;;4943643;29;20043;-74
2022/12/31 07:13:48;;;;;;;116.45;75.70;;;6.00;99.90;;;;;;4953383;29;20131;-77
2022/12/31 07:16:29;;;;;;;137.57;90.53;;;6.10;99.90;;;;;;4948828;29;20039;-77
2022/12/31 07:19:12;;;;;;;162.95;107.38;;;6.10;99.90;;;;;;4945666;29;20040;-74
2022/12/31 07:21:41;;;;;;;130.27;86.97;;;6.20;99.90;;;;;;4949452;29;20039;-76
2022/12/31 07:24:11;;;;;;;155.10;97.40;;;6.20;99.90;;;;;;4955507;29;20042;-76
2022/12/31 07:27:00;;;;;;;180.73;125.20;;;6.30;99.90;;;;;;4956491;29;20043;-74
2022/12/31 07:29:37;;;;;;;190.50;131.25;;;6.40;99.90;;;;;;4941808;29;20488;-77
2022/12/31 07:32:11;;;;;;;168.30;112.30;;;6.40;99.90;;;;;;4944204;29;20050;-74
2022/12/31 07:34:47;;;;;;;159.93;103.88;;;6.40;99.90;;;;;;4956880;29;20059;-76
2022/12/31 07:37:27;;;;;;;171.63;112.75;;;6.40;99.90;;;;;;4953972;29;20205;-77
2022/12/31 07:40:04;;;;;;;188.32;121.05;;;6.40;99.90;;;;;;4940434;29;20043;-75
2022/12/31 07:42:40;;;;;;;181.95;120.03;;;6.60;99.90;;;;;;4939638;29;20071;-76
2022/12/31 07:45:15;;;;;;;172.98;112.30;;;6.70;99.90;;;;;;4922829;29;20044;-76
2022/12/31 07:47:43;;;;;;;183.20;118.03;;;6.90;99.90;;;;;;4944187;28;20036;-75
2022/12/31 07:50:17;;;;;;;187.43;123.00;;;7.00;99.90;;;;;;4945487;29;20044;-77
2022/12/31 07:52:45;;;;;;;197.95;126.70;;;7.10;99.90;;;;;;4943570;29;20039;-76
2022/12/31 07:55:13;;;;;;;204.77;134.30;;;7.20;1.00;;;;;;4943965;29;20177;-77
2022/12/31 07:57:49;;;;;;;185.55;122.90;;;7.20;99.90;;;;;;4943255;29;20051;-76
2022/12/31 08:00:17;;;;;;;194.15;131.75;;;7.30;1.00;;;;;;4945374;29;20051;-77
2022/12/31 08:03:03;;;;;;;206.20;135.43;;;7.40;1.00;;;;;;4946603;29;20079;-75
2022/12/31 08:05:37;;;;;;;195.30;129.15;;;7.50;99.90;;;;;;4938025;28;20510;-75
2022/12/31 08:08:17;;;;;;;191.82;127.38;;;7.60;1.00;;;;;;4964596;29;20074;-75
2022/12/31 08:10:54;;;;;;;198.05;131.77;;;7.60;21.60;;;;;;4965897;29;20074;-76
2022/12/31 08:13:22;;;;;;;166.13;112.80;;;7.70;1.00;;;;;;4947427;29;20119;-78
2022/12/31 08:15:50;;;;;;;147.43;100.10;;;7.70;99.90;;;;;;4945912;29;20428;-77
2022/12/31 08:18:18;;;;;;;178.60;119.90;;;7.70;99.90;;;;;;4947815;29;20063;-76
2022/12/31 08:20:55;;;;;;;178.35;121.03;;;7.90;99.90;;;;;;4949080;29;20044;-75
2022/12/31 08:23:28;;;;;;;179.02;121.07;;;7.90;1.00;;;;;;4949849;29;20043;-77
2022/12/31 08:26:22;;;;;;;193.90;127.97;;;8.10;1.00;;;;;;4946530;29;20044;-76
2022/12/31 08:29:13;;;;;;;188.77;125.22;;;8.20;99.90;;;;;;4949148;29;20098;-77
2022/12/31 08:31:49;;;;;;;184.50;121.10;;;8.30;99.90;;;;;;4947104;29;20467;-75
2022/12/31 08:34:26;;;;;;;178.60;122.13;;;8.40;1.00;;;;;;4946654;29;20039;-73
2022/12/31 08:36:59;;;;;;;180.95;124.03;;;8.60;1.00;;;;;;4945727;28;20044;-77
2022/12/31 08:39:41;;;;;;;173.02;117.95;;;8.80;99.90;;;;;;4926771;29;20059;-77
2022/12/31 08:42:19;;;;;;;181.70;117.93;;;8.90;1.00;;;;;;4948349;29;20054;-76
2022/12/31 08:44:55;;;;;;;180.35;125.10;;;9.00;1.00;;;;;;4944944;29;20039;-77
2022/12/31 08:47:31;;;;;;;179.63;124.45;;;9.10;99.90;;;;;;4944353;29;20050;-76
2022/12/31 08:49:58;;;;;;;165.60;116.68;;;9.00;1.00;;;;;;4940304;29;20059;-76
2022/12/31 08:52:29;;;;;;;186.68;129.13;;;9.10;1.00;;;;;;4948944;29;20051;-75
2022/12/31 08:54:57;;;;;;;187.85;130.82;;;9.10;1.00;;;;;;4948495;28;20043;-75
2022/12/31 08:57:33;;;;;;;172.20;119.75;;;9.00;1.00;;;;;;4936559;29;20081;-74
2022/12/31 09:00:06;;;;;;;165.45;113.75;;;9.00;1.00;;;;;;4943649;29;20091;-73
2022/12/31 09:02:56;;;;;;;156.68;111.18;;;8.90;99.90;;;;;;4912280;29;20434;-75
2022/12/31 09:05:27;;;;;;;162.82;110.05;;;8.90;1.00;;;;;;4944447;28;20032;-78
2022/12/31 09:08:07;;;;;;;174.93;115.05;;;8.90;99.90;;;;;;4945709;29;20084;-74
2022/12/31 09:10:42;;;;;;;169.50;118.82;;;8.90;99.90;;;;;;4946188;29;20042;-77
2022/12/31 09:13:20;;;;;;;201.85;129.80;;;9.00;99.90;;;;;;4945577;29;20063;-78
2022/12/31 09:15:55;;;;;;;189.27;127.03;;;9.10;99.90;;;;;;4945064;29;20047;-77
2022/12/31 09:18:24;;;;;;;194.98;130.73;;;9.30;1.00;;;;;;4941551;29;20043;-78
2022/12/31 09:20:51;;;;;;;183.18;126.25;;;9.40;1.00;;;;;;4926096;29;20043;-77
2022/12/31 09:23:21;;;;;;;177.30;121.88;;;9.50;99.90;;;;;;4943593;29;20047;-77
2022/12/31 09:25:59;;;;;;;143.00;101.22;;;9.70;1.00;;;;;;4943190;28;20425;-78
2022/12/31 09:28:38;;;;;;;163.45;112.80;;;9.80;86.50;;;;;;4942848;29;20103;-75
2022/12/31 09:31:13;;;;;;;172.38;118.53;;;9.90;1.00;;;;;;4946078;29;20043;-75
2022/12/31 09:33:47;;;;;;;192.52;131.93;;;10.10;1.00;;;;;;4945685;29;20097;-78
2022/12/31 09:36:19;;;;;;;204.40;139.68;;;10.20;1.00;;;;;;4947615;29;20077;-76
2022/12/31 09:38:54;;;;;;;175.25;119.90;;;10.40;99.90;;;;;;4947013;29;20440;-77
2022/12/31 09:42:01;;;;;;;160.13;109.50;;;10.60;1.00;;;;;;4932872;29;20052;-78
2022/12/31 09:44:59;;;;;;;154.85;107.20;;;10.70;1.00;;;;;;4935967;29;20047;-76
2022/12/31 09:48:05;;;;;;;150.93;103.03;;;11.00;1.00;;;;;;4947377;29;20050;-77
2022/12/31 09:50:52;;;;;;;127.00;89.40;;;11.10;1.00;;;;;;4945698;29;20058;-77
2022/12/31 09:53:35;;;;;;;127.82;88.93;;;11.20;1.00;;;;;;4947567;29;20046;-75
2022/12/31 09:56:11;;;;;;;127.25;86.43;;;11.40;30.00;;;;;;4945768;28;20035;-75
2022/12/31 09:58:42;;;;;;;;;;;11.50;1.00;;;;;;4929107;29;20177;-76
2022/12/31 10:01:30;;;;;;;128.82;86.15;;;11.60;1.00;;;;;;4944408;29;19922;-77
2022/12/31 10:04:42;;;;;;;118.53;85.95;;;11.80;1.00;;;;;;4944593;29;20052;-76
2022/12/31 10:07:36;;;;;;;124.18;85.15;;;12.00;1.00;;;;;;4960730;29;20103;-77
2022/12/31 10:10:09;;;;;;;128.15;90.13;;;12.10;1.00;;;;;;4949368;28;20056;-77
2022/12/31 10:13:19;;;;;;;142.13;96.85;;;12.30;99.90;;;;;;4952115;29;20091;-77
2022/12/31 10:16:24;;;;;;;121.97;84.72;;;12.40;1.00;;;;;;4951702;28;20044;-75
2022/12/31 10:19:32;;;;;;;120.72;84.90;;;12.50;99.90;;;;;;4928789;29;20043;-78
2022/12/31 10:22:14;;;;;;;131.27;90.88;;;12.70;99.90;;;;;;4937458;29;20079;-76
2022/12/31 10:24:53;;;;;;;140.07;96.47;;;12.80;99.90;;;;;;4924041;29;20171;-78
2022/12/31 10:27:37;;;;;;;109.97;77.25;;;12.90;99.90;;;;;;4947175;29;20044;-77
2022/12/31 10:30:15;;;;;;;111.60;77.65;;;13.10;49.20;;;;;;4943557;29;20071;-76
2022/12/31 10:33:07;;;;;;;104.47;74.63;;;13.30;8.30;;;;;;4940212;29;20534;-77
2022/12/31 10:35:42;;;;;;;109.32;72.43;;;13.40;1.00;;;;;;4943279;29;20063;-76
2022/12/31 10:38:22;;;;;;;93.78;67.57;;;13.60;1.00;;;;;;4944841;29;20035;-77
2022/12/31 10:41:19;;;;;;;104.57;67.95;;;13.80;1.00;;;;;;4943261;29;20036;-76
2022/12/31 10:44:23;;;;;;;104.93;67.70;;;14.00;1.00;;;;;;4948111;29;20044;-76
2022/12/31 10:47:37;;;;;;;88.15;62.17;;;14.10;1.00;;;;;;4949543;29;20043;-76
2022/12/31 10:50:40;;;;;;;89.38;59.45;;;14.30;1.00;;;;;;4944566;29;20043;-76
2022/12/31 10:53:41;;;;;;;84.53;53.00;;;14.40;1.00;;;;;;4943065;29;20099;-76
2022/12/31 10:56:36;;;;;;;85.63;54.63;;;14.60;1.00;;;;;;4942042;28;20122;-77
2022/12/31 10:59:24;;;;;;;78.75;51.88;;;14.60;1.00;;;;;;4925599;29;20465;-76
2022/12/31 11:02:06;;;;;;;62.78;40.35;;;14.70;1.00;;;;;;4942437;29;20119;-75
2022/12/31 11:05:06;;;;;;;58.53;36.75;;;14.80;1.00;;;;;;4939810;29;20055;-77
2022/12/31 11:07:56;;;;;;;49.67;33.22;;;14.90;1.00;;;;;;4940814;29;20107;-76
2022/12/31 11:10:58;;;;;;;53.13;32.03;;;15.00;1.00;;;;;;4941232;29;20048;-77
2022/12/31 11:14:05;;;;;;;51.50;32.08;;;15.00;1.00;;;;;;4941529;29;20058;-75
2022/12/31 11:16:51;;;;;;;48.53;30.30;;;15.10;1.00;;;;;;4942632;29;20049;-76
2022/12/31 11:19:21;;;;;;;;;;;15.20;1.00;;;;;;4941083;29;20043;-75
2022/12/31 11:22:12;;;;;;;38.67;24.25;;;15.20;1.00;;;;;;4940859;29;20006;-76
2022/12/31 11:25:01;;;;;;;40.28;25.73;;;15.30;1.00;;;;;;4941593;28;20146;-76
2022/12/31 11:27:46;;;;;;;44.08;28.90;;;15.30;1.00;;;;;;4941590;29;20042;-74
2022/12/31 11:30:22;;;;;;;44.80;29.45;;;15.40;1.00;;;;;;4940402;29;20043;-75
2022/12/31 11:33:04;;;;;;;52.83;32.13;;;15.50;1.00;;;;;;4944573;29;20371;-76
2022/12/31 11:35:44;;;;;;;56.50;35.38;;;15.50;1.00;;;;;;4942693;28;20038;-76
2022/12/31 11:38:23;;;;;;;46.15;29.35;;;15.50;1.00;;;;;;4942459;29;20403;-75
2022/12/31 11:40:59;;;;;;;40.28;26.77;;;15.60;1.00;;;;;;4943212;29;20039;-76
2022/12/31 11:43:34;;;;;;;37.85;23.52;;;15.60;1.00;;;;;;4944015;29;20040;-76
2022/12/31 11:46:32;;;;;;;39.58;24.73;;;15.60;1.00;;;;;;4947531;29;20064;-76
2022/12/31 11:49:17;;;;;;;41.78;23.90;;;15.80;1.00;;;;;;4948392;29;20043;-76
2022/12/31 11:52:03;;;;;;;46.20;24.25;;;15.80;1.00;;;;;;4953157;29;20256;-77
2022/12/31 11:54:48;;;;;;;67.90;41.50;;;15.90;1.00;;;;;;4953907;29;20653;-76
2022/12/31 11:57:26;;;;;;;80.57;48.23;;;16.00;1.00;;;;;;4947483;29;20038;-78
2022/12/31 11:59:57;;;;;;;83.40;53.17;;;16.10;1.00;;;;;;4944878;29;20051;-77
2022/12/31 12:02:29;;;;;;;134.85;90.25;;;16.20;1.00;;;;;;4946550;29;20098;-78
2022/12/31 12:05:00;;;;;;;103.85;71.53;;;16.20;1.00;;;;;;4960875;28;20043;-74
2022/12/31 12:07:29;;;;;;;53.78;32.85;;;16.20;1.00;;;;;;4960590;29;20051;-74
2022/12/31 12:10:02;;;;;;;55.92;33.30;;;16.30;1.00;;;;;;4959571;29;20067;-75
2022/12/31 12:12:40;;;;;;;48.25;30.70;;;16.30;1.00;;;;;;4955129;29;20066;-78
2022/12/31 12:15:10;;;;;;;47.15;25.77;;;16.40;1.00;;;;;;4926085;29;20043;-76
2022/12/31 12:17:38;;;;;;;38.22;24.77;;;16.40;1.00;;;;;;4941765;29;20054;-77
2022/12/31 12:20:17;;;;;;;36.63;23.05;;;16.40;1.00;;;;;;4938949;29;20039;-77
2022/12/31 12:22:50;;;;;;;38.47;23.95;;;16.50;1.00;;;;;;4940509;29;20059;-74
2022/12/31 12:25:20;;;;;;;35.58;26.27;;;16.60;1.00;;;;;;4955931;29;20041;-76
2022/12/31 12:27:49;;;;;;;41.85;28.80;;;16.60;1.00;;;;;;4942616;29;20043;-76
2022/12/31 12:30:20;;;;;;;40.83;28.05;;;16.70;1.00;;;;;;4941440;29;20401;-75
2022/12/31 12:32:53;;;;;;;36.60;23.13;;;16.80;1.00;;;;;;4941395;28;20102;-77
2022/12/31 12:35:26;;;;;;;37.95;21.67;;;16.80;1.00;;;;;;4944802;28;20046;-77
2022/12/31 12:38:01;;;;;;;27.85;17.73;;;16.80;1.00;;;;;;4943281;29;20091;-75
2022/12/31 12:40:30;;;;;;;29.95;18.40;;;16.90;1.00;;;;;;4943902;29;20050;-76
2022/12/31 12:42:59;;;;;;;24.58;15.63;;;17.00;1.00;;;;;;4947817;29;20561;-75
2022/12/31 12:45:29;;;;;;;28.08;16.17;;;17.00;1.00;;;;;;4944295;28;20098;-76
2022/12/31 12:48:00;;;;;;;25.17;15.07;;;17.10;1.00;;;;;;4947217;29;20080;-75
2022/12/31 12:50:37;;;;;;;25.08;15.82;;;17.10;1.00;;;;;;4960885;29;20039;-76
2022/12/31 12:53:17;;;;;;;28.52;14.80;;;17.10;1.00;;;;;;4943639;29;20058;-77
2022/12/31 12:55:55;;;;;;;25.35;14.55;;;17.10;1.00;;;;;;4942712;29;20582;-76
2022/12/31 12:58:42;;;;;;;25.75;16.27;;;17.20;1.00;;;;;;4946030;29;20077;-77
2022/12/31 13:01:14;;;;;;;;;;;17.20;1.00;;;;;;4944569;29;20062;-76
2022/12/31 13:04:15;;;;;;;14.00;9.75;;;17.30;1.00;;;;;;4952629;28;19930;-77
2022/12/31 13:07:04;;;;;;;15.45;10.85;;;17.30;1.00;;;;;;4906588;29;20098;-76
2022/12/31 13:09:52;;;;;;;20.40;12.07;;;17.30;1.00;;;;;;4944228;29;20047;-75
2022/12/31 13:12:25;;;;;;;22.20;8.00;;;17.20;1.00;;;;;;4954984;29;20144;-76
2022/12/31 13:15:03;;;;;;;13.77;5.20;;;17.20;1.00;;;;;;4940530;29;20063;-76
2022/12/31 13:17:44;;;;;;;17.60;6.10;;;17.20;1.00;;;;;;4951255;29;20055;-74
2022/12/31 13:20:20;;;;;;;12.27;6.03;;;17.20;1.00;;;;;;4947535;29;20146;-75
2022/12/31 13:22:54;;;;;;;17.73;6.82;;;17.20;1.00;;;;;;4956953;29;20490;-77
2022/12/31 13:25:27;;;;;;;27.55;16.30;;;17.20;1.00;;;;;;4944326;28;20137;-76